sensor_id;sensor_type;location;lat;lon;timestamp;P1;P2;P0
55304;PMS7003;65692;51.378;19.824;2023-02-26T00:01:38;7.00;7.00;6.33
55304;PMS7003;65692;51.378;19.824;2023-02-26T00:04:07;6.75;5.25;4.00
55304;PMS7003;65692;51.378;19.824;2023-02-26T00:06:37;6.33;6.33;5.67
55304;PMS7003;65692;51.378;19.824;2023-02-26T00:09:05;4.67;4.00;2.33
55304;PMS7003;65692;51.378;19.824;2023-02-26T00:11:33;4.00;4.00;3.25
55304;PMS7003;65692;51.378;19.824;2023-02-26T00:14:00;4.67;4.67;4.00
55304;PMS7003;65692;51.378;19.824;2023-02-26T00:16:29;8.00;5.67;4.00
55304;PMS7003;65692;51.378;19.824;2023-02-26T00:19:00;7.00;5.33;4.00
55304;PMS7003;65692;51.378;19.824;2023-02-26T00:21:28;4.67;4.67;4.67
55304;PMS7003;65692;51.378;19.824;2023-02-26T00:23:55;9.67;6.67;4.00
55304;PMS7003;65692;51.378;19.824;2023-02-26T00:26:22;12.33;7.00;6.00
55304;PMS7003;65692;51.378;19.824;2023-02-26T00:28:49;9.33;5.33;4.00
55304;PMS7003;65692;51.378;19.824;2023-02-26T00:31:16;8.00;8.00;6.00
55304;PMS7003;65692;51.378;19.824;2023-02-26T00:33:43;6.25;5.25;4.25
55304;PMS7003;65692;51.378;19.824;2023-02-26T00:39:05;7.00;7.00;4.50
55304;PMS7003;65692;51.378;19.824;2023-02-26T00:41:32;9.33;6.00;3.33
55304;PMS7003;65692;51.378;19.824;2023-02-26T00:43:59;13.00;8.33;6.67
55304;PMS7003;65692;51.378;19.824;2023-02-26T00:46:43;10.00;7.00;5.33
55304;PMS7003;65692;51.378;19.824;2023-02-26T00:51:47;11.33;5.67;5.33
55304;PMS7003;65692;51.378;19.824;2023-02-26T00:54:21;10.75;7.50;4.50
55304;PMS7003;65692;51.378;19.824;2023-02-26T00:56:48;4.00;4.00;3.33
55304;PMS7003;65692;51.378;19.824;2023-02-26T00:59:15;4.67;4.67;4.00
55304;PMS7003;65692;51.378;19.824;2023-02-26T01:01:42;7.50;7.00;6.50
55304;PMS7003;65692;51.378;19.824;2023-02-26T01:04:09;8.75;5.25;5.00
55304;PMS7003;65692;51.378;19.824;2023-02-26T01:06:37;16.00;10.50;7.50
55304;PMS7003;65692;51.378;19.824;2023-02-26T01:11:51;11.75;6.75;5.25
55304;PMS7003;65692;51.378;19.824;2023-02-26T01:14:18;11.00;7.00;6.33
55304;PMS7003;65692;51.378;19.824;2023-02-26T01:19:26;8.50;5.00;4.50
55304;PMS7003;65692;51.378;19.824;2023-02-26T01:22:02;7.67;5.67;4.67
55304;PMS7003;65692;51.378;19.824;2023-02-26T01:24:30;6.00;4.00;3.00
55304;PMS7003;65692;51.378;19.824;2023-02-26T01:26:59;6.67;6.67;4.00
55304;PMS7003;65692;51.378;19.824;2023-02-26T01:29:26;7.67;6.33;4.00
55304;PMS7003;65692;51.378;19.824;2023-02-26T01:31:54;8.67;6.00;5.00
55304;PMS7003;65692;51.378;19.824;2023-02-26T01:34:31;9.75;6.50;5.25
55304;PMS7003;65692;51.378;19.824;2023-02-26T01:37:21;7.00;5.33;4.00
55304;PMS7003;65692;51.378;19.824;2023-02-26T01:42:28;8.00;6.33;4.00
55304;PMS7003;65692;51.378;19.824;2023-02-26T01:47:32;12.00;8.25;4.00
55304;PMS7003;65692;51.378;19.824;2023-02-26T01:50:22;10.75;8.00;5.00
55304;PMS7003;65692;51.378;19.824;2023-02-26T01:55:21;11.75;8.25;7.00
55304;PMS7003;65692;51.378;19.824;2023-02-26T01:57:48;12.00;10.00;7.00
55304;PMS7003;65692;51.378;19.824;2023-02-26T02:00:16;9.50;7.00;5.25
55304;PMS7003;65692;51.378;19.824;2023-02-26T02:02:43;12.00;9.00;7.00
55304;PMS7003;65692;51.378;19.824;2023-02-26T02:05:14;7.50;6.50;4.75
55304;PMS7003;65692;51.378;19.824;2023-02-26T02:07:43;20.00;9.75;8.00
55304;PMS7003;65692;51.378;19.824;2023-02-26T02:10:10;10.50;8.75;8.00
55304;PMS7003;65692;51.378;19.824;2023-02-26T02:33:17;17.00;10.00;7.00
55304;PMS7003;65692;51.378;19.824;2023-02-26T02:36:07;10.25;10.25;7.75
55304;PMS7003;65692;51.378;19.824;2023-02-26T02:38:45;9.00;7.00;6.00
55304;PMS7003;65692;51.378;19.824;2023-02-26T02:41:34;9.75;7.00;6.50
55304;PMS7003;65692;51.378;19.824;2023-02-26T02:44:03;9.00;7.00;6.00
55304;PMS7003;65692;51.378;19.824;2023-02-26T02:46:33;10.75;7.25;5.25
55304;PMS7003;65692;51.378;19.824;2023-02-26T02:49:02;9.50;8.00;7.25
55304;PMS7003;65692;51.378;19.824;2023-02-26T02:51:33;14.50;9.50;7.50
55304;PMS7003;65692;51.378;19.824;2023-02-26T02:54:04;11.25;7.75;7.00
55304;PMS7003;65692;51.378;19.824;2023-02-26T02:56:41;9.50;7.25;6.00
55304;PMS7003;65692;51.378;19.824;2023-02-26T02:59:17;13.50;10.00;7.75
55304;PMS7003;65692;51.378;19.824;2023-02-26T03:01:47;16.00;10.50;7.00
55304;PMS7003;65692;51.378;19.824;2023-02-26T03:04:14;9.00;8.25;7.00
55304;PMS7003;65692;51.378;19.824;2023-02-26T03:06:44;10.50;8.25;6.25
55304;PMS7003;65692;51.378;19.824;2023-02-26T03:09:19;11.50;9.00;7.00
55304;PMS7003;65692;51.378;19.824;2023-02-26T03:11:45;14.25;9.50;6.75
55304;PMS7003;65692;51.378;19.824;2023-02-26T03:14:12;11.50;7.50;7.00
55304;PMS7003;65692;51.378;19.824;2023-02-26T03:16:59;10.75;8.75;7.25
55304;PMS7003;65692;51.378;19.824;2023-02-26T03:24:27;15.50;9.75;7.00
55304;PMS7003;65692;51.378;19.824;2023-02-26T03:29:42;12.50;7.00;6.00
55304;PMS7003;65692;51.378;19.824;2023-02-26T03:32:16;10.00;6.25;6.00
55304;PMS7003;65692;51.378;19.824;2023-02-26T03:34:46;10.50;9.25;7.25
55304;PMS7003;65692;51.378;19.824;2023-02-26T03:39:49;16.00;9.25;7.75
55304;PMS7003;65692;51.378;19.824;2023-02-26T03:42:21;8.00;8.00;6.00
55304;PMS7003;65692;51.378;19.824;2023-02-26T03:45:09;6.50;6.00;4.00
55304;PMS7003;65692;51.378;19.824;2023-02-26T03:47:37;10.50;10.50;9.00
55304;PMS7003;65692;51.378;19.824;2023-02-26T03:50:06;12.75;9.75;7.75
55304;PMS7003;65692;51.378;19.824;2023-02-26T03:52:34;12.50;11.75;7.75
55304;PMS7003;65692;51.378;19.824;2023-02-26T03:55:10;9.50;8.75;7.00
55304;PMS7003;65692;51.378;19.824;2023-02-26T03:57:37;16.50;10.50;9.50
55304;PMS7003;65692;51.378;19.824;2023-02-26T04:00:04;15.00;8.25;6.75
55304;PMS7003;65692;51.378;19.824;2023-02-26T04:02:33;10.25;8.50;6.75
55304;PMS7003;65692;51.378;19.824;2023-02-26T04:05:06;11.25;9.25;6.75
55304;PMS7003;65692;51.378;19.824;2023-02-26T04:07:33;14.00;8.00;6.25
55304;PMS7003;65692;51.378;19.824;2023-02-26T04:09:59;7.50;4.50;4.50
55304;PMS7003;65692;51.378;19.824;2023-02-26T04:12:26;8.75;7.50;6.00
55304;PMS7003;65692;51.378;19.824;2023-02-26T04:14:55;9.00;6.50;6.00
55304;PMS7003;65692;51.378;19.824;2023-02-26T04:17:22;13.00;10.50;8.00
55304;PMS7003;65692;51.378;19.824;2023-02-26T04:19:49;7.00;6.50;3.25
55304;PMS7003;65692;51.378;19.824;2023-02-26T04:22:15;7.00;5.00;4.50
55304;PMS7003;65692;51.378;19.824;2023-02-26T04:24:42;5.00;4.00;4.00
55304;PMS7003;65692;51.378;19.824;2023-02-26T04:27:10;10.00;6.00;4.00
55304;PMS7003;65692;51.378;19.824;2023-02-26T04:29:36;9.25;4.00;4.00
55304;PMS7003;65692;51.378;19.824;2023-02-26T04:32:03;5.00;5.00;4.00
55304;PMS7003;65692;51.378;19.824;2023-02-26T04:34:30;5.00;4.00;3.75
55304;PMS7003;65692;51.378;19.824;2023-02-26T04:36:56;6.25;6.25;4.50
55304;PMS7003;65692;51.378;19.824;2023-02-26T04:39:23;5.50;3.00;2.00
55304;PMS7003;65692;51.378;19.824;2023-02-26T04:41:49;4.50;4.00;3.00
55304;PMS7003;65692;51.378;19.824;2023-02-26T04:44:16;0.00;0.00;0.00
55304;PMS7003;65692;51.378;19.824;2023-02-26T04:46:42;11.00;7.00;6.00
55304;PMS7003;65692;51.378;19.824;2023-02-26T04:49:09;5.00;5.00;4.00
55304;PMS7003;65692;51.378;19.824;2023-02-26T04:51:35;6.00;6.00;4.00
55304;PMS7003;65692;51.378;19.824;2023-02-26T04:54:01;7.50;4.50;3.00
55304;PMS7003;65692;51.378;19.824;2023-02-26T04:56:28;6.67;6.00;4.00
55304;PMS7003;65692;51.378;19.824;2023-02-26T04:58:54;8.75;5.00;4.50
55304;PMS7003;65692;51.378;19.824;2023-02-26T05:01:21;4.50;4.50;4.00
55304;PMS7003;65692;51.378;19.824;2023-02-26T05:03:52;4.75;4.50;4.00
55304;PMS7003;65692;51.378;19.824;2023-02-26T05:06:20;9.25;9.25;6.00
55304;PMS7003;65692;51.378;19.824;2023-02-26T05:08:56;7.50;6.00;5.50
55304;PMS7003;65692;51.378;19.824;2023-02-26T05:11:24;7.25;4.00;4.00
55304;PMS7003;65692;51.378;19.824;2023-02-26T05:13:50;7.00;6.00;4.00
55304;PMS7003;65692;51.378;19.824;2023-02-26T05:16:16;3.00;3.00;1.67
55304;PMS7003;65692;51.378;19.824;2023-02-26T05:18:43;6.50;6.50;5.75
55304;PMS7003;65692;51.378;19.824;2023-02-26T05:21:09;4.00;4.00;4.00
55304;PMS7003;65692;51.378;19.824;2023-02-26T05:23:37;6.00;6.00;4.00
55304;PMS7003;65692;51.378;19.824;2023-02-26T05:26:04;4.25;2.25;1.00
55304;PMS7003;65692;51.378;19.824;2023-02-26T05:28:30;3.33;3.33;3.00
55304;PMS7003;65692;51.378;19.824;2023-02-26T05:30:59;16.00;7.00;6.00
55304;PMS7003;65692;51.378;19.824;2023-02-26T05:33:25;9.75;6.00;4.00
55304;PMS7003;65692;51.378;19.824;2023-02-26T05:35:53;11.00;7.50;6.25
55304;PMS7003;65692;51.378;19.824;2023-02-26T05:38:20;7.50;6.00;4.50
55304;PMS7003;65692;51.378;19.824;2023-02-26T05:40:46;6.25;5.00;3.50
55304;PMS7003;65692;51.378;19.824;2023-02-26T05:43:12;4.00;3.00;3.00
55304;PMS7003;65692;51.378;19.824;2023-02-26T05:45:39;7.00;4.50;3.25
55304;PMS7003;65692;51.378;19.824;2023-02-26T05:48:05;8.25;4.50;4.00
55304;PMS7003;65692;51.378;19.824;2023-02-26T05:50:32;7.00;4.00;3.50
55304;PMS7003;65692;51.378;19.824;2023-02-26T05:52:58;6.00;3.75;3.00
55304;PMS7003;65692;51.378;19.824;2023-02-26T05:55:25;10.25;8.50;7.00
55304;PMS7003;65692;51.378;19.824;2023-02-26T05:57:52;10.75;7.00;5.00
55304;PMS7003;65692;51.378;19.824;2023-02-26T06:00:18;6.00;5.25;3.75
55304;PMS7003;65692;51.378;19.824;2023-02-26T06:02:45;8.00;5.50;4.00
55304;PMS7003;65692;51.378;19.824;2023-02-26T06:05:11;6.50;5.00;4.00
55304;PMS7003;65692;51.378;19.824;2023-02-26T06:07:38;7.00;6.00;5.00
55304;PMS7003;65692;51.378;19.824;2023-02-26T06:10:05;5.50;5.50;4.00
55304;PMS7003;65692;51.378;19.824;2023-02-26T06:12:33;3.00;3.00;2.50
55304;PMS7003;65692;51.378;19.824;2023-02-26T06:15:00;9.67;6.00;4.00
55304;PMS7003;65692;51.378;19.824;2023-02-26T06:17:27;3.33;3.33;3.33
55304;PMS7003;65692;51.378;19.824;2023-02-26T06:19:53;5.00;3.00;3.00
55304;PMS7003;65692;51.378;19.824;2023-02-26T06:22:20;6.00;4.00;3.00
55304;PMS7003;65692;51.378;19.824;2023-02-26T06:24:47;6.00;6.00;4.00
55304;PMS7003;65692;51.378;19.824;2023-02-26T06:27:15;6.00;4.00;3.67
55304;PMS7003;65692;51.378;19.824;2023-02-26T06:29:43;3.33;2.67;1.00
55304;PMS7003;65692;51.378;19.824;2023-02-26T06:32:10;7.00;6.00;4.00
55304;PMS7003;65692;51.378;19.824;2023-02-26T06:34:37;17.00;12.50;8.25
55304;PMS7003;65692;51.378;19.824;2023-02-26T06:37:04;7.00;5.50;3.75
55304;PMS7003;65692;51.378;19.824;2023-02-26T06:39:30;6.00;6.00;4.00
55304;PMS7003;65692;51.378;19.824;2023-02-26T06:41:57;16.50;11.50;10.00
55304;PMS7003;65692;51.378;19.824;2023-02-26T06:44:24;8.75;8.50;6.00
55304;PMS7003;65692;51.378;19.824;2023-02-26T06:46:50;13.00;10.00;9.00
55304;PMS7003;65692;51.378;19.824;2023-02-26T06:49:17;30.00;26.25;18.50
55304;PMS7003;65692;51.378;19.824;2023-02-26T06:51:44;9.25;8.00;7.00
55304;PMS7003;65692;51.378;19.824;2023-02-26T06:54:10;6.50;6.50;5.25
55304;PMS7003;65692;51.378;19.824;2023-02-26T06:56:37;12.50;10.25;8.50
55304;PMS7003;65692;51.378;19.824;2023-02-26T06:59:03;10.50;8.25;7.00
55304;PMS7003;65692;51.378;19.824;2023-02-26T07:01:30;7.00;7.00;7.00
55304;PMS7003;65692;51.378;19.824;2023-02-26T07:03:57;2.67;2.67;2.33
55304;PMS7003;65692;51.378;19.824;2023-02-26T07:06:23;6.33;6.33;4.67
55304;PMS7003;65692;51.378;19.824;2023-02-26T07:09:03;8.00;7.00;4.33
55304;PMS7003;65692;51.378;19.824;2023-02-26T07:11:30;9.50;8.00;7.50
55304;PMS7003;65692;51.378;19.824;2023-02-26T07:13:56;8.67;7.00;5.67
55304;PMS7003;65692;51.378;19.824;2023-02-26T07:16:23;6.33;5.00;5.00
55304;PMS7003;65692;51.378;19.824;2023-02-26T07:18:50;4.67;1.33;1.00
55304;PMS7003;65692;51.378;19.824;2023-02-26T07:21:16;5.00;5.00;4.33
55304;PMS7003;65692;51.378;19.824;2023-02-26T07:23:43;5.67;5.67;5.00
55304;PMS7003;65692;51.378;19.824;2023-02-26T07:26:09;13.00;8.00;6.33
55304;PMS7003;65692;51.378;19.824;2023-02-26T07:28:36;11.67;6.33;5.00
55304;PMS7003;65692;51.378;19.824;2023-02-26T07:31:02;13.33;12.00;9.33
55304;PMS7003;65692;51.378;19.824;2023-02-26T07:33:29;17.50;13.50;10.00
55304;PMS7003;65692;51.378;19.824;2023-02-26T07:35:57;15.00;10.50;7.75
55304;PMS7003;65692;51.378;19.824;2023-02-26T07:38:23;18.75;15.75;11.00
55304;PMS7003;65692;51.378;19.824;2023-02-26T07:40:50;22.25;17.00;10.75
55304;PMS7003;65692;51.378;19.824;2023-02-26T07:43:16;24.50;15.50;12.00
55304;PMS7003;65692;51.378;19.824;2023-02-26T07:45:43;21.50;17.50;14.00
55304;PMS7003;65692;51.378;19.824;2023-02-26T07:48:09;19.50;19.50;13.00
55304;PMS7003;65692;51.378;19.824;2023-02-26T07:50:36;37.25;23.75;15.25
55304;PMS7003;65692;51.378;19.824;2023-02-26T07:53:02;7.67;7.67;7.00
55304;PMS7003;65692;51.378;19.824;2023-02-26T07:55:29;19.33;15.00;10.00
55304;PMS7003;65692;51.378;19.824;2023-02-26T07:57:55;26.00;20.25;16.75
55304;PMS7003;65692;51.378;19.824;2023-02-26T08:00:22;11.33;7.33;7.00
55304;PMS7003;65692;51.378;19.824;2023-02-26T08:02:48;14.67;13.33;8.00
55304;PMS7003;65692;51.378;19.824;2023-02-26T08:05:15;13.75;13.25;10.50
55304;PMS7003;65692;51.378;19.824;2023-02-26T08:07:42;14.25;10.25;8.50
55304;PMS7003;65692;51.378;19.824;2023-02-26T08:10:09;17.33;14.00;12.00
55304;PMS7003;65692;51.378;19.824;2023-02-26T08:12:36;9.00;7.00;6.00
55304;PMS7003;65692;51.378;19.824;2023-02-26T08:15:03;24.50;17.00;14.00
55304;PMS7003;65692;51.378;19.824;2023-02-26T08:17:30;48.25;34.00;25.00
55304;PMS7003;65692;51.378;19.824;2023-02-26T08:19:56;32.50;22.00;18.25
55304;PMS7003;65692;51.378;19.824;2023-02-26T08:22:23;17.25;12.25;11.50
55304;PMS7003;65692;51.378;19.824;2023-02-26T08:24:49;30.50;21.00;16.00
55304;PMS7003;65692;51.378;19.824;2023-02-26T08:27:16;23.25;21.25;15.75
55304;PMS7003;65692;51.378;19.824;2023-02-26T08:29:42;41.00;34.50;25.00
55304;PMS7003;65692;51.378;19.824;2023-02-26T08:32:12;12.25;9.00;6.50
55304;PMS7003;65692;51.378;19.824;2023-02-26T08:34:44;10.67;5.33;4.00
55304;PMS7003;65692;51.378;19.824;2023-02-26T08:37:11;12.50;10.00;7.50
55304;PMS7003;65692;51.378;19.824;2023-02-26T08:39:53;6.67;6.67;5.67
55304;PMS7003;65692;51.378;19.824;2023-02-26T08:42:26;15.75;9.50;8.00
55304;PMS7003;65692;51.378;19.824;2023-02-26T08:45:02;28.00;18.75;14.50
55304;PMS7003;65692;51.378;19.824;2023-02-26T08:47:36;20.00;15.00;12.00
55304;PMS7003;65692;51.378;19.824;2023-02-26T08:50:27;18.00;17.50;14.00
55304;PMS7003;65692;51.378;19.824;2023-02-26T08:52:54;4.00;1.00;1.00
55304;PMS7003;65692;51.378;19.824;2023-02-26T08:55:21;14.00;11.75;9.50
55304;PMS7003;65692;51.378;19.824;2023-02-26T08:57:48;11.50;7.00;6.50
55304;PMS7003;65692;51.378;19.824;2023-02-26T09:00:15;18.25;14.25;12.00
55304;PMS7003;65692;51.378;19.824;2023-02-26T09:02:47;80.50;57.25;34.25
55304;PMS7003;65692;51.378;19.824;2023-02-26T09:05:20;33.50;19.75;16.75
55304;PMS7003;65692;51.378;19.824;2023-02-26T09:07:47;54.75;45.75;27.75
55304;PMS7003;65692;51.378;19.824;2023-02-26T09:10:15;70.50;46.00;29.25
55304;PMS7003;65692;51.378;19.824;2023-02-26T09:12:42;5.75;3.00;1.00
55304;PMS7003;65692;51.378;19.824;2023-02-26T09:15:09;17.75;13.00;10.25
55304;PMS7003;65692;51.378;19.824;2023-02-26T09:17:36;12.67;9.67;7.00
55304;PMS7003;65692;51.378;19.824;2023-02-26T09:20:03;7.00;3.33;2.33
55304;PMS7003;65692;51.378;19.824;2023-02-26T09:22:29;4.00;4.00;4.00
55304;PMS7003;65692;51.378;19.824;2023-02-26T09:24:56;10.00;10.00;7.00
55304;PMS7003;65692;51.378;19.824;2023-02-26T09:27:23;10.00;8.00;5.00
55304;PMS7003;65692;51.378;19.824;2023-02-26T09:29:50;2.67;2.00;1.00
55304;PMS7003;65692;51.378;19.824;2023-02-26T09:32:16;4.00;4.00;4.00
55304;PMS7003;65692;51.378;19.824;2023-02-26T09:34:43;7.67;4.33;4.33
55304;PMS7003;65692;51.378;19.824;2023-02-26T09:37:11;19.00;10.00;7.67
55304;PMS7003;65692;51.378;19.824;2023-02-26T09:39:38;16.00;11.00;10.00
55304;PMS7003;65692;51.378;19.824;2023-02-26T09:44:49;9.33;8.67;5.67
55304;PMS7003;65692;51.378;19.824;2023-02-26T09:54:48;7.00;4.33;4.33
55304;PMS7003;65692;51.378;19.824;2023-02-26T09:57:25;7.00;4.00;2.00
55304;PMS7003;65692;51.378;19.824;2023-02-26T09:59:53;7.00;4.00;4.00
55304;PMS7003;65692;51.378;19.824;2023-02-26T10:02:21;5.00;5.00;4.67
55304;PMS7003;65692;51.378;19.824;2023-02-26T10:07:56;15.25;13.50;12.00
55304;PMS7003;65692;51.378;19.824;2023-02-26T10:12:57;14.75;14.75;11.00
55304;PMS7003;65692;51.378;19.824;2023-02-26T10:15:35;21.75;17.75;12.25
55304;PMS7003;65692;51.378;19.824;2023-02-26T10:18:12;3.50;1.50;1.50
55304;PMS7003;65692;51.378;19.824;2023-02-26T10:28:38;8.00;8.00;7.00
55304;PMS7003;65692;51.378;19.824;2023-02-26T10:36:26;8.67;5.67;4.00
55304;PMS7003;65692;51.378;19.824;2023-02-26T10:42:12;31.75;18.75;14.00
55304;PMS7003;65692;51.378;19.824;2023-02-26T10:52:22;25.50;20.75;13.00
55304;PMS7003;65692;51.378;19.824;2023-02-26T10:58:05;32.75;26.25;21.50
55304;PMS7003;65692;51.378;19.824;2023-02-26T11:01:18;15.00;13.00;11.25
55304;PMS7003;65692;51.378;19.824;2023-02-26T11:04:18;16.25;10.50;8.50
55304;PMS7003;65692;51.378;19.824;2023-02-26T11:07:12;10.67;9.00;8.33
55304;PMS7003;65692;51.378;19.824;2023-02-26T11:10:05;22.00;17.00;14.00
55304;PMS7003;65692;51.378;19.824;2023-02-26T11:12:57;23.25;19.25;14.00
55304;PMS7003;65692;51.378;19.824;2023-02-26T11:15:28;14.50;12.50;10.00
55304;PMS7003;65692;51.378;19.824;2023-02-26T11:18:25;18.75;16.75;12.00
55304;PMS7003;65692;51.378;19.824;2023-02-26T11:21:04;20.75;15.50;12.50
55304;PMS7003;65692;51.378;19.824;2023-02-26T11:24:00;14.33;10.67;8.00
55304;PMS7003;65692;51.378;19.824;2023-02-26T11:26:30;8.67;7.67;6.33
55304;PMS7003;65692;51.378;19.824;2023-02-26T11:28:57;17.00;16.00;13.00
55304;PMS7003;65692;51.378;19.824;2023-02-26T11:31:25;13.33;10.00;7.67
55304;PMS7003;65692;51.378;19.824;2023-02-26T11:33:53;11.00;9.00;7.67
55304;PMS7003;65692;51.378;19.824;2023-02-26T11:36:24;8.00;8.00;7.00
55304;PMS7003;65692;51.378;19.824;2023-02-26T11:38:54;15.33;8.00;7.00
55304;PMS7003;65692;51.378;19.824;2023-02-26T11:41:23;14.67;7.67;7.00
55304;PMS7003;65692;51.378;19.824;2023-02-26T11:44:01;11.00;11.00;8.00
55304;PMS7003;65692;51.378;19.824;2023-02-26T11:46:29;14.33;14.33;12.00
55304;PMS7003;65692;51.378;19.824;2023-02-26T11:48:57;7.67;7.67;5.00
55304;PMS7003;65692;51.378;19.824;2023-02-26T11:51:26;37.00;30.25;21.25
55304;PMS7003;65692;51.378;19.824;2023-02-26T11:53:55;26.67;18.33;12.33
55304;PMS7003;65692;51.378;19.824;2023-02-26T11:56:37;36.00;25.75;14.50
55304;PMS7003;65692;51.378;19.824;2023-02-26T11:59:06;19.67;13.67;9.33
55304;PMS7003;65692;51.378;19.824;2023-02-26T12:01:34;29.50;26.75;20.75
55304;PMS7003;65692;51.378;19.824;2023-02-26T12:04:02;20.67;19.00;14.00
55304;PMS7003;65692;51.378;19.824;2023-02-26T12:06:29;63.50;45.50;31.50
55304;PMS7003;65692;51.378;19.824;2023-02-26T12:08:56;21.67;13.33;9.33
55304;PMS7003;65692;51.378;19.824;2023-02-26T12:16:57;34.00;25.25;19.75
55304;PMS7003;65692;51.378;19.824;2023-02-26T12:22:02;27.50;18.25;11.25
55304;PMS7003;65692;51.378;19.824;2023-02-26T12:38:11;13.33;13.00;10.33
55304;PMS7003;65692;51.378;19.824;2023-02-26T12:46:00;7.67;4.33;1.33
55304;PMS7003;65692;51.378;19.824;2023-02-26T12:53:44;19.25;19.25;13.75
55304;PMS7003;65692;51.378;19.824;2023-02-26T13:01:37;14.00;10.33;6.33
55304;PMS7003;65692;51.378;19.824;2023-02-26T13:07:00;12.33;12.00;10.00
55304;PMS7003;65692;51.378;19.824;2023-02-26T13:12:13;8.00;8.00;5.67
55304;PMS7003;65692;51.378;19.824;2023-02-26T13:19:59;20.00;18.33;14.00
55304;PMS7003;65692;51.378;19.824;2023-02-26T13:22:38;21.00;17.25;13.25
55304;PMS7003;65692;51.378;19.824;2023-02-26T13:25:20;21.75;13.25;10.50
55304;PMS7003;65692;51.378;19.824;2023-02-26T13:28:05;8.25;6.75;5.50
55304;PMS7003;65692;51.378;19.824;2023-02-26T13:30:41;31.00;24.50;20.00
55304;PMS7003;65692;51.378;19.824;2023-02-26T13:33:32;10.75;7.00;7.00
55304;PMS7003;65692;51.378;19.824;2023-02-26T13:36:08;10.00;6.33;5.33
55304;PMS7003;65692;51.378;19.824;2023-02-26T13:45:27;17.00;14.75;12.75
55304;PMS7003;65692;51.378;19.824;2023-02-26T13:51:11;7.00;7.00;5.00
55304;PMS7003;65692;51.378;19.824;2023-02-26T14:35:10;19.00;15.25;12.25
55304;PMS7003;65692;51.378;19.824;2023-02-26T14:44:23;24.25;17.50;13.50
55304;PMS7003;65692;51.378;19.824;2023-02-26T14:46:54;22.25;20.25;15.00
55304;PMS7003;65692;51.378;19.824;2023-02-26T14:49:55;19.00;12.00;8.33
55304;PMS7003;65692;51.378;19.824;2023-02-26T14:52:52;15.00;7.67;7.00
55304;PMS7003;65692;51.378;19.824;2023-02-26T14:55:53;7.33;7.33;5.00
55304;PMS7003;65692;51.378;19.824;2023-02-26T15:17:26;19.25;17.00;11.00
55304;PMS7003;65692;51.378;19.824;2023-02-26T15:19:54;15.33;11.33;8.00
55304;PMS7003;65692;51.378;19.824;2023-02-26T15:25:15;25.25;20.25;18.00
55304;PMS7003;65692;51.378;19.824;2023-02-26T15:27:45;30.75;28.75;18.75
55304;PMS7003;65692;51.378;19.824;2023-02-26T15:30:14;73.25;53.75;36.25
55304;PMS7003;65692;51.378;19.824;2023-02-26T15:32:41;44.00;34.75;26.75
55304;PMS7003;65692;51.378;19.824;2023-02-26T15:35:20;26.00;18.75;13.25
55304;PMS7003;65692;51.378;19.824;2023-02-26T15:37:52;16.33;13.67;11.00
55304;PMS7003;65692;51.378;19.824;2023-02-26T15:40:20;8.67;8.33;6.67
55304;PMS7003;65692;51.378;19.824;2023-02-26T15:42:52;29.00;21.00;14.50
55304;PMS7003;65692;51.378;19.824;2023-02-26T15:47:59;22.00;18.33;12.33
55304;PMS7003;65692;51.378;19.824;2023-02-26T15:50:53;17.33;12.67;11.00
55304;PMS7003;65692;51.378;19.824;2023-02-26T15:56:24;30.00;23.50;15.50
55304;PMS7003;65692;51.378;19.824;2023-02-26T15:59:06;35.50;27.50;19.75
55304;PMS7003;65692;51.378;19.824;2023-02-26T16:01:55;34.25;27.25;18.50
55304;PMS7003;65692;51.378;19.824;2023-02-26T16:04:25;38.75;31.25;16.00
55304;PMS7003;65692;51.378;19.824;2023-02-26T16:07:03;45.50;29.00;22.50
55304;PMS7003;65692;51.378;19.824;2023-02-26T16:09:50;38.50;32.00;25.25
55304;PMS7003;65692;51.378;19.824;2023-02-26T16:12:35;37.50;34.75;25.50
55304;PMS7003;65692;51.378;19.824;2023-02-26T16:15:43;45.75;37.75;27.25
55304;PMS7003;65692;51.378;19.824;2023-02-26T16:18:12;56.25;45.00;31.25
55304;PMS7003;65692;51.378;19.824;2023-02-26T16:20:41;68.00;48.50;33.25
55304;PMS7003;65692;51.378;19.824;2023-02-26T16:26:12;64.75;49.00;34.50
55304;PMS7003;65692;51.378;19.824;2023-02-26T16:29:15;60.75;46.25;32.50
55304;PMS7003;65692;51.378;19.824;2023-02-26T16:32:04;61.00;48.50;32.25
55304;PMS7003;65692;51.378;19.824;2023-02-26T16:37:43;81.25;60.50;38.50
55304;PMS7003;65692;51.378;19.824;2023-02-26T16:40:32;88.25;63.00;40.00
55304;PMS7003;65692;51.378;19.824;2023-02-26T16:46:12;99.75;69.25;43.50
55304;PMS7003;65692;51.378;19.824;2023-02-26T16:51:08;109.00;86.40;55.80
55304;PMS7003;65692;51.378;19.824;2023-02-26T16:53:41;161.67;117.33;69.67
55304;PMS7003;65692;51.378;19.824;2023-02-26T16:56:13;66.25;50.00;35.75
55304;PMS7003;65692;51.378;19.824;2023-02-26T16:58:44;40.25;32.75;24.50
55304;PMS7003;65692;51.378;19.824;2023-02-26T17:01:34;22.25;18.75;12.25
55304;PMS7003;65692;51.378;19.824;2023-02-26T17:04:08;32.25;25.00;19.00
55304;PMS7003;65692;51.378;19.824;2023-02-26T17:06:44;36.50;28.00;18.50
55304;PMS7003;65692;51.378;19.824;2023-02-26T17:09:36;70.00;56.00;38.75
55304;PMS7003;65692;51.378;19.824;2023-02-26T17:12:13;56.50;42.25;28.50
55304;PMS7003;65692;51.378;19.824;2023-02-26T17:14:45;59.75;45.75;29.25
55304;PMS7003;65692;51.378;19.824;2023-02-26T17:17:15;64.00;47.25;32.75
55304;PMS7003;65692;51.378;19.824;2023-02-26T17:23:03;66.50;51.50;36.50
55304;PMS7003;65692;51.378;19.824;2023-02-26T17:25:51;57.00;45.75;29.50
55304;PMS7003;65692;51.378;19.824;2023-02-26T17:28:40;32.75;25.00;18.25
55304;PMS7003;65692;51.378;19.824;2023-02-26T17:31:08;49.25;41.00;28.00
55304;PMS7003;65692;51.378;19.824;2023-02-26T17:33:44;69.75;54.50;32.75
55304;PMS7003;65692;51.378;19.824;2023-02-26T17:36:14;105.75;75.25;48.25
55304;PMS7003;65692;51.378;19.824;2023-02-26T17:38:42;125.50;92.50;52.50
55304;PMS7003;65692;51.378;19.824;2023-02-26T17:41:14;111.75;84.25;52.25
55304;PMS7003;65692;51.378;19.824;2023-02-26T17:43:42;114.50;92.75;56.75
55304;PMS7003;65692;51.378;19.824;2023-02-26T17:46:18;108.00;79.50;53.50
55304;PMS7003;65692;51.378;19.824;2023-02-26T17:48:49;118.75;93.25;57.25
55304;PMS7003;65692;51.378;19.824;2023-02-26T17:51:20;128.25;96.00;56.50
55304;PMS7003;65692;51.378;19.824;2023-02-26T17:53:53;115.75;98.00;60.25
55304;PMS7003;65692;51.378;19.824;2023-02-26T17:56:26;118.50;89.00;57.00
55304;PMS7003;65692;51.378;19.824;2023-02-26T17:58:58;108.25;84.00;52.00
55304;PMS7003;65692;51.378;19.824;2023-02-26T18:01:27;128.00;106.00;66.25
55304;PMS7003;65692;51.378;19.824;2023-02-26T18:04:09;125.75;99.50;63.75
55304;PMS7003;65692;51.378;19.824;2023-02-26T18:06:46;124.25;103.50;63.25
55304;PMS7003;65692;51.378;19.824;2023-02-26T18:09:21;125.50;106.25;64.25
55304;PMS7003;65692;51.378;19.824;2023-02-26T18:12:07;145.00;123.67;76.67
55304;PMS7003;65692;51.378;19.824;2023-02-26T18:14:37;128.50;104.00;65.00
55304;PMS7003;65692;51.378;19.824;2023-02-26T18:17:17;110.75;86.25;53.25